Samuels, Idaho
Current Conditions -  °F | °C
As of 1:55 PM on Thursday 27 Nov 2014 (Local Time) from KSZT Reporting Station
Light Rain Light Rain  
Wind Chill: 48°   Ceiling: 3600
Heat Index: 48°   Visibility: 10mi
Dew Point: 45°   Wind: 3mph
Humidity: 87%   Direction: 250°WSW
Pressure: 29.79"   Gusts: NA
Location:  48.48°N, 116.46°W
Report Text: KSZT 272155Z AUTO 25003KT 10SM -RA OVC036 09/07 A2979 RMK AO2
Loading
Personal Weather Stations






























Interactive Weather Map New forecast layout! Learn more

10-Day Weather Forecast

Advertisements
Track Severe Weather on mobile